Time;durP1;ratioP1;P1;durP2;ratioP2;P2;SDS_P1;SDS_P2;PMS_P1;PMS_P2;Temp;Humidity;BMP_temperature;BMP_pressure;BME280_temperature;BME280_humidity;BME280_pressure;Samples;Min_cycle;Max_cycle;Signal;HPM_P1;HPM_P2
2023/11/07 00:01:26;;;;;;;12.17;11.27;;;5.80;99.90;;;;;;4874165;29;20227;-75
2023/11/07 00:03:54;;;;;;;12.17;11.47;;;5.80;99.90;;;;;;4873485;29;20670;-78
2023/11/07 00:06:21;;;;;;;12.00;11.30;;;5.70;99.90;;;;;;4878275;29;20261;-79
2023/11/07 00:08:47;;;;;;;12.23;11.43;;;5.70;99.90;;;;;;4874553;29;20215;-79
2023/11/07 00:11:14;;;;;;;13.10;12.30;;;5.70;99.90;;;;;;4878099;29;20230;-77
2023/11/07 00:13:43;;;;;;;12.90;12.10;;;5.70;99.90;;;;;;4876379;29;20247;-77
2023/11/07 00:16:11;;;;;;;12.87;12.07;;;5.70;99.90;;;;;;4880084;29;20285;-79
2023/11/07 00:18:39;;;;;;;12.60;11.60;;;5.70;99.90;;;;;;4878383;29;20199;-79
2023/11/07 00:21:07;;;;;;;12.37;11.67;;;5.70;99.90;;;;;;4877905;29;20202;-79
2023/11/07 00:23:34;;;;;;;12.90;12.10;;;5.60;99.90;;;;;;4881986;29;20208;-79
2023/11/07 00:26:01;;;;;;;12.30;11.53;;;5.50;99.90;;;;;;4878932;29;20223;-77
2023/11/07 00:28:28;;;;;;;11.93;11.23;;;5.50;99.90;;;;;;4882364;29;20213;-78
2023/11/07 00:30:56;;;;;;;11.97;11.27;;;5.40;99.90;;;;;;4880615;29;20227;-78
2023/11/07 00:33:23;;;;;;;12.07;11.37;;;5.40;99.90;;;;;;4883462;29;20199;-78
2023/11/07 00:35:50;;;;;;;12.50;11.60;;;5.30;99.90;;;;;;4882875;29;20293;-77
2023/11/07 00:38:17;;;;;;;12.63;11.83;;;5.30;99.90;;;;;;4879681;29;20657;-77
2023/11/07 00:40:44;;;;;;;11.97;11.27;;;5.30;99.90;;;;;;4882829;29;20298;-77
2023/11/07 00:43:10;;;;;;;12.67;11.80;;;5.30;99.90;;;;;;4878560;29;20212;-78
2023/11/07 00:45:37;;;;;;;12.40;11.70;;;5.20;99.90;;;;;;4882313;29;20189;-77
2023/11/07 00:48:06;;;;;;;12.57;11.77;;;5.30;99.90;;;;;;4882038;29;20643;-77
2023/11/07 00:50:34;;;;;;;12.70;11.90;;;5.30;99.90;;;;;;4883159;29;20251;-77
2023/11/07 00:53:01;;;;;;;12.57;11.77;;;5.20;99.90;;;;;;4884888;29;20237;-77
2023/11/07 00:55:28;;;;;;;12.33;11.63;;;5.20;99.90;;;;;;4878519;29;20208;-77
2023/11/07 00:57:55;;;;;;;12.00;11.30;;;5.10;99.90;;;;;;4882106;29;20198;-77
2023/11/07 01:00:22;;;;;;;12.10;11.40;;;5.10;99.90;;;;;;4877346;29;20203;-77
2023/11/07 01:02:49;;;;;;;12.60;11.60;;;5.00;99.90;;;;;;4880677;29;20206;-78
2023/11/07 01:05:18;;;;;;;12.20;11.40;;;5.00;99.90;;;;;;4889043;29;20261;-78
2023/11/07 01:07:45;;;;;;;11.90;11.20;;;4.90;99.90;;;;;;4879739;29;20225;-78
2023/11/07 01:10:13;;;;;;;12.20;11.43;;;4.90;99.90;;;;;;4878383;29;20228;-77
2023/11/07 01:12:40;;;;;;;12.60;11.83;;;4.80;99.90;;;;;;4876960;29;20206;-77
2023/11/07 01:15:07;;;;;;;12.87;11.87;;;4.80;99.90;;;;;;4878205;29;20235;-77
2023/11/07 01:17:34;;;;;;;12.27;11.57;;;4.80;99.90;;;;;;4888262;29;20718;-78
2023/11/07 01:20:01;;;;;;;12.60;11.80;;;4.80;99.90;;;;;;4887091;29;20198;-76
2023/11/07 01:22:29;;;;;;;13.17;12.33;;;4.80;99.90;;;;;;4876570;29;20212;-79
2023/11/07 01:24:56;;;;;;;12.70;11.90;;;4.70;99.90;;;;;;4878955;29;20202;-78
2023/11/07 01:27:23;;;;;;;13.07;12.27;;;4.70;99.90;;;;;;4881069;29;20230;-77
2023/11/07 01:29:51;;;;;;;13.20;12.30;;;4.70;99.90;;;;;;4880935;29;20662;-77
2023/11/07 01:32:19;;;;;;;12.57;11.83;;;4.70;99.90;;;;;;4879041;29;20207;-77
2023/11/07 01:34:46;;;;;;;12.80;12.10;;;4.70;99.90;;;;;;4881759;29;20659;-77
2023/11/07 01:37:12;;;;;;;13.00;12.20;;;4.60;99.90;;;;;;4882002;29;20236;-77
2023/11/07 01:39:41;;;;;;;12.77;12.07;;;4.60;99.90;;;;;;4883643;29;20198;-77
2023/11/07 01:42:08;;;;;;;12.50;11.80;;;4.60;99.90;;;;;;4879566;29;20206;-76
2023/11/07 01:44:35;;;;;;;12.60;11.80;;;4.50;99.90;;;;;;4880872;29;20206;-78
2023/11/07 01:47:02;;;;;;;12.20;11.50;;;4.60;99.90;;;;;;4881778;29;20229;-77
2023/11/07 01:49:29;;;;;;;12.13;11.43;;;4.60;99.90;;;;;;4901982;29;20193;-78
2023/11/07 01:51:57;;;;;;;13.07;12.20;;;4.60;99.90;;;;;;4882829;29;20248;-76
2023/11/07 01:54:27;;;;;;;12.90;12.00;;;4.70;99.90;;;;;;4886023;29;20209;-77
2023/11/07 01:56:55;;;;;;;12.60;11.80;;;4.70;99.90;;;;;;4895548;29;20209;-76
2023/11/07 01:59:23;;;;;;;12.50;11.80;;;4.70;99.90;;;;;;4883245;29;20209;-77
2023/11/07 02:01:53;;;;;;;12.70;11.90;;;4.70;99.90;;;;;;4879988;29;20227;-76
2023/11/07 02:04:21;;;;;;;12.97;12.07;;;4.70;99.90;;;;;;4880750;29;20230;-77
2023/11/07 02:06:48;;;;;;;13.43;12.63;;;4.70;99.90;;;;;;4881056;29;20225;-77
2023/11/07 02:09:15;;;;;;;13.50;12.70;;;4.70;99.90;;;;;;4877595;29;20222;-76
2023/11/07 02:11:43;;;;;;;12.77;12.07;;;4.70;99.90;;;;;;4881171;29;20236;-77
2023/11/07 02:14:26;;;;;;;13.47;12.67;;;4.70;99.90;;;;;;4875372;29;20205;-77
2023/11/07 02:16:53;;;;;;;13.20;12.40;;;4.80;99.90;;;;;;4874526;29;20249;-77
2023/11/07 02:19:20;;;;;;;12.40;11.70;;;4.80;99.90;;;;;;4870924;29;20668;-76
2023/11/07 02:21:47;;;;;;;13.10;12.10;;;4.70;99.90;;;;;;4870901;29;20237;-78
2023/11/07 02:24:15;;;;;;;12.80;12.00;;;4.70;99.90;;;;;;4872149;29;20235;-77
2023/11/07 02:26:43;;;;;;;12.27;11.57;;;4.70;99.90;;;;;;4869162;29;20248;-77
2023/11/07 02:29:10;;;;;;;12.47;11.77;;;4.80;99.90;;;;;;4871107;29;20229;-78
2023/11/07 02:31:37;;;;;;;12.50;11.80;;;4.80;99.90;;;;;;4865020;29;20230;-77
2023/11/07 02:34:05;;;;;;;12.80;12.00;;;4.80;99.90;;;;;;4868882;29;20215;-77
2023/11/07 02:36:34;;;;;;;12.40;11.60;;;4.80;99.90;;;;;;4871422;29;20215;-78
2023/11/07 02:39:04;;;;;;;13.13;12.17;;;4.80;99.90;;;;;;4869792;29;20346;-77
2023/11/07 02:41:32;;;;;;;12.80;11.97;;;4.80;99.90;;;;;;4869220;29;20555;-77
2023/11/07 02:43:59;;;;;;;13.27;12.47;;;4.80;99.90;;;;;;4870045;29;20210;-77
2023/11/07 02:46:26;;;;;;;13.13;12.33;;;4.90;99.90;;;;;;4866917;29;20221;-78
2023/11/07 02:48:53;;;;;;;13.00;12.30;;;5.00;99.90;;;;;;4876130;29;20252;-78
2023/11/07 02:51:20;;;;;;;12.93;12.23;;;5.10;99.90;;;;;;4865032;29;20353;-77
2023/11/07 02:53:47;;;;;;;13.00;12.30;;;5.10;99.90;;;;;;4875329;29;20698;-77
2023/11/07 02:56:14;;;;;;;13.37;12.57;;;5.20;99.90;;;;;;4868918;29;20286;-77
2023/11/07 02:58:42;;;;;;;12.83;12.13;;;5.30;99.90;;;;;;4864931;29;20227;-76
2023/11/07 03:01:08;;;;;;;13.60;12.80;;;5.30;99.90;;;;;;4871053;29;20202;-77
2023/11/07 03:03:35;;;;;;;13.40;12.60;;;5.40;99.90;;;;;;4873436;29;20271;-77
2023/11/07 03:06:02;;;;;;;13.40;12.60;;;5.50;99.90;;;;;;4869857;29;20273;-77
2023/11/07 03:08:29;;;;;;;13.30;12.60;;;5.50;99.90;;;;;;4864663;29;20229;-77
2023/11/07 03:10:56;;;;;;;13.40;12.60;;;5.60;99.90;;;;;;4867761;29;20227;-78
2023/11/07 03:13:23;;;;;;;12.93;12.23;;;5.60;99.90;;;;;;4868160;29;20206;-77
2023/11/07 03:15:51;;;;;;;13.67;12.97;;;5.70;99.90;;;;;;4868891;29;20231;-77
2023/11/07 03:18:18;;;;;;;14.20;13.40;;;5.70;99.90;;;;;;4873568;29;20263;-77
2023/11/07 03:20:45;;;;;;;14.33;13.47;;;5.90;99.90;;;;;;4865839;29;20205;-78
2023/11/07 03:23:12;;;;;;;13.53;12.67;;;5.90;99.90;;;;;;4877412;29;20199;-77
2023/11/07 03:25:38;;;;;;;13.13;12.30;;;6.00;99.90;;;;;;4879269;29;20676;-79
2023/11/07 03:28:05;;;;;;;12.83;12.13;;;6.00;99.90;;;;;;4866888;29;20310;-77
2023/11/07 03:30:32;;;;;;;13.00;12.20;;;6.10;99.90;;;;;;4868986;29;20206;-77
2023/11/07 03:33:00;;;;;;;12.60;11.87;;;6.20;99.90;;;;;;4871036;29;20208;-77
2023/11/07 03:35:27;;;;;;;13.00;12.10;;;6.20;99.90;;;;;;4867080;29;20233;-77
2023/11/07 03:37:54;;;;;;;13.63;12.93;;;6.30;99.90;;;;;;4872458;29;20207;-77
2023/11/07 03:40:21;;;;;;;13.10;12.23;;;6.30;99.90;;;;;;4868927;29;20206;-78
2023/11/07 03:42:47;;;;;;;13.20;12.50;;;6.30;99.90;;;;;;4865861;29;20222;-77
2023/11/07 03:45:14;;;;;;;13.47;12.77;;;6.40;99.90;;;;;;4865104;29;20596;-77
2023/11/07 03:47:41;;;;;;;13.33;12.60;;;6.40;99.90;;;;;;4868063;29;20227;-77
2023/11/07 03:50:10;;;;;;;13.27;12.57;;;6.30;99.90;;;;;;4872593;29;20204;-78
2023/11/07 03:52:37;;;;;;;13.53;12.83;;;6.30;99.90;;;;;;4872172;29;20317;-82
2023/11/07 03:55:05;;;;;;;12.93;12.23;;;6.20;99.90;;;;;;4881384;29;20210;-82
2023/11/07 03:57:32;;;;;;;13.33;12.63;;;6.10;99.90;;;;;;4878081;29;20255;-82
2023/11/07 03:59:59;;;;;;;12.90;12.20;;;6.10;99.90;;;;;;4875940;29;20710;-82
2023/11/07 04:02:26;;;;;;;12.93;12.23;;;6.10;99.90;;;;;;4873534;29;20211;-82
2023/11/07 04:04:53;;;;;;;13.57;12.60;;;6.10;99.90;;;;;;4878792;29;20200;-82
2023/11/07 04:07:21;;;;;;;13.23;12.53;;;6.00;99.90;;;;;;4872908;29;20237;-82
2023/11/07 04:09:48;;;;;;;13.00;12.30;;;6.00;99.90;;;;;;4873466;29;20225;-81
2023/11/07 04:12:15;;;;;;;13.23;12.53;;;6.10;99.90;;;;;;4873665;29;20752;-82
2023/11/07 04:14:43;;;;;;;14.00;13.30;;;6.00;99.90;;;;;;4871725;29;20623;-81
2023/11/07 04:17:10;;;;;;;13.80;13.10;;;6.00;99.90;;;;;;4879867;29;20227;-81
2023/11/07 04:19:37;;;;;;;13.27;12.57;;;6.00;99.90;;;;;;4878259;29;20226;-82
2023/11/07 04:22:05;;;;;;;13.10;12.40;;;6.00;99.90;;;;;;4867384;29;20208;-81
2023/11/07 04:24:35;;;;;;;14.20;13.30;;;5.90;99.90;;;;;;4881948;29;20246;-82
2023/11/07 04:27:02;;;;;;;13.10;12.40;;;5.90;99.90;;;;;;5107655;23;20752;-82
2023/11/07 04:29:31;;;;;;;13.60;12.90;;;5.90;99.90;;;;;;4871784;29;20222;-82
2023/11/07 04:31:58;;;;;;;13.67;12.97;;;5.90;99.90;;;;;;4876681;29;20260;-81
2023/11/07 04:34:25;;;;;;;13.50;12.70;;;5.90;99.90;;;;;;4866095;29;20268;-78
2023/11/07 04:36:53;;;;;;;13.50;12.70;;;5.90;99.90;;;;;;4865259;29;20236;-78
2023/11/07 04:39:20;;;;;;;13.40;12.60;;;5.80;99.90;;;;;;4857138;29;20211;-77
2023/11/07 04:41:48;;;;;;;13.40;12.70;;;5.80;99.90;;;;;;4853875;29;20201;-78
2023/11/07 04:44:15;;;;;;;14.00;13.10;;;5.80;99.90;;;;;;4856240;29;20663;-78
2023/11/07 04:46:43;;;;;;;13.33;12.63;;;5.80;99.90;;;;;;4860177;29;20226;-78
2023/11/07 04:49:10;;;;;;;13.70;12.90;;;5.80;99.90;;;;;;4860923;29;20203;-77
2023/11/07 04:51:37;;;;;;;13.60;12.90;;;5.80;99.90;;;;;;4860042;29;20277;-77
2023/11/07 04:54:04;;;;;;;13.80;13.00;;;5.80;99.90;;;;;;4855112;29;20227;-78
2023/11/07 04:56:31;;;;;;;13.57;12.87;;;5.80;99.90;;;;;;4861115;29;20232;-77
2023/11/07 04:58:59;;;;;;;14.20;13.40;;;5.80;99.90;;;;;;4861078;29;20684;-78
2023/11/07 05:01:26;;;;;;;14.50;13.70;;;5.80;99.90;;;;;;4860783;29;20204;-78
2023/11/07 05:03:53;;;;;;;14.10;13.30;;;5.80;99.90;;;;;;4859875;29;20253;-79
2023/11/07 05:06:20;;;;;;;14.20;13.20;;;5.80;99.90;;;;;;4855592;29;20287;-77
2023/11/07 05:08:47;;;;;;;13.80;13.00;;;5.80;99.90;;;;;;4859655;29;20212;-78
2023/11/07 05:11:13;;;;;;;13.87;12.97;;;5.80;99.90;;;;;;4857998;29;20249;-77
2023/11/07 05:13:40;;;;;;;14.67;13.77;;;5.80;99.90;;;;;;4857741;29;20271;-78
2023/11/07 05:16:09;;;;;;;14.60;13.80;;;5.90;99.90;;;;;;4856560;29;20239;-77
2023/11/07 05:18:35;;;;;;;14.47;13.67;;;5.80;99.90;;;;;;4866478;29;20278;-78
2023/11/07 05:21:02;;;;;;;14.10;13.40;;;5.80;99.90;;;;;;4853829;29;20235;-77
2023/11/07 05:23:29;;;;;;;14.40;13.63;;;5.80;99.90;;;;;;4860987;29;20203;-78
2023/11/07 05:25:57;;;;;;;14.10;13.40;;;5.80;99.90;;;;;;4855862;29;20653;-78
2023/11/07 05:28:24;;;;;;;13.77;12.90;;;5.80;99.90;;;;;;4857562;29;20212;-78
2023/11/07 05:30:50;;;;;;;13.57;12.77;;;5.80;99.90;;;;;;4857216;29;20228;-78
2023/11/07 05:33:19;;;;;;;13.70;13.00;;;5.80;99.90;;;;;;4857217;29;20235;-78
2023/11/07 05:35:45;;;;;;;13.17;12.47;;;5.80;99.90;;;;;;4856930;29;20628;-77
2023/11/07 05:38:14;;;;;;;13.23;12.50;;;5.80;99.90;;;;;;4854484;29;20207;-78
2023/11/07 05:40:41;;;;;;;13.30;12.53;;;5.80;99.90;;;;;;4853771;29;20207;-79
2023/11/07 05:43:08;;;;;;;14.20;13.30;;;5.90;99.90;;;;;;4856761;29;20248;-78
2023/11/07 05:45:35;;;;;;;14.13;13.33;;;5.90;99.90;;;;;;4858001;29;20208;-79
2023/11/07 05:48:01;;;;;;;14.60;13.80;;;6.00;99.90;;;;;;4859982;29;20206;-78
2023/11/07 05:50:30;;;;;;;14.40;13.63;;;6.10;99.90;;;;;;4868502;29;20216;-77
2023/11/07 05:52:56;;;;;;;10.70;10.07;;;6.20;99.90;;;;;;4862805;29;20219;-78
2023/11/07 05:55:24;;;;;;;12.43;11.63;;;6.30;99.90;;;;;;4862823;29;20279;-79
2023/11/07 05:57:53;;;;;;;11.77;11.07;;;6.30;99.90;;;;;;4852079;29;20205;-80
2023/11/07 06:00:21;;;;;;;11.07;10.47;;;6.30;99.90;;;;;;4849351;29;20676;-81
2023/11/07 06:02:48;;;;;;;11.80;11.10;;;6.40;99.90;;;;;;4853056;29;20682;-80
2023/11/07 06:05:15;;;;;;;11.60;10.90;;;6.40;99.90;;;;;;4856173;29;20217;-79
2023/11/07 06:07:43;;;;;;;12.90;12.10;;;6.30;99.90;;;;;;4852428;29;20247;-79
2023/11/07 06:10:10;;;;;;;13.10;12.30;;;6.30;99.90;;;;;;4851333;29;20212;-80
2023/11/07 06:12:37;;;;;;;12.40;11.60;;;6.30;99.90;;;;;;4851927;29;20227;-80
2023/11/07 06:15:05;;;;;;;11.83;11.17;;;6.30;99.90;;;;;;4851121;29;20301;-80
2023/11/07 06:17:32;;;;;;;12.97;12.17;;;6.30;99.90;;;;;;4843530;29;20617;-80
2023/11/07 06:19:59;;;;;;;13.40;12.60;;;6.30;99.90;;;;;;4846614;29;20261;-80
2023/11/07 06:22:26;;;;;;;14.07;13.27;;;6.30;99.90;;;;;;4847024;29;20204;-80
2023/11/07 06:24:54;;;;;;;13.97;13.07;;;6.30;99.90;;;;;;4850811;29;20236;-81
2023/11/07 06:27:21;;;;;;;13.00;12.30;;;6.30;99.90;;;;;;4861913;29;20238;-80
2023/11/07 06:29:48;;;;;;;13.10;12.33;;;6.30;99.90;;;;;;4849472;29;20218;-80
2023/11/07 06:32:15;;;;;;;12.80;12.10;;;6.30;99.90;;;;;;4849217;29;20224;-81
2023/11/07 06:34:42;;;;;;;13.27;12.47;;;6.30;99.90;;;;;;4846119;29;20201;-80
2023/11/07 06:37:09;;;;;;;12.73;12.03;;;6.30;99.90;;;;;;4849508;29;20276;-81
2023/11/07 06:39:37;;;;;;;12.77;12.07;;;6.30;99.90;;;;;;4851415;29;20299;-80
2023/11/07 06:42:05;;;;;;;12.67;11.97;;;6.30;99.90;;;;;;4855246;29;20690;-80
2023/11/07 06:44:32;;;;;;;12.37;11.67;;;6.40;99.90;;;;;;4854391;29;20220;-82
2023/11/07 06:46:59;;;;;;;12.70;12.00;;;6.30;99.90;;;;;;4858038;29;20229;-77
2023/11/07 06:49:26;;;;;;;12.47;11.77;;;6.40;99.90;;;;;;4856173;29;20211;-78
2023/11/07 06:51:54;;;;;;;12.50;11.70;;;6.40;99.90;;;;;;4850731;29;20254;-77
2023/11/07 06:54:21;;;;;;;12.50;11.70;;;6.60;99.90;;;;;;4852547;29;20208;-78
2023/11/07 06:56:47;;;;;;;12.20;11.50;;;6.70;99.90;;;;;;4850997;29;20229;-78
2023/11/07 06:59:16;;;;;;;12.10;11.40;;;6.80;99.90;;;;;;4853922;29;20217;-78
2023/11/07 07:01:44;;;;;;;12.10;11.40;;;7.00;99.90;;;;;;4855800;29;20231;-78
2023/11/07 07:04:11;;;;;;;13.00;12.13;;;7.10;99.90;;;;;;4850902;29;20244;-76
2023/11/07 07:06:38;;;;;;;12.00;11.07;;;7.30;99.90;;;;;;4851380;29;20264;-78
2023/11/07 07:09:05;;;;;;;12.20;11.30;;;7.50;99.90;;;;;;4851054;29;20213;-78
2023/11/07 07:11:32;;;;;;;12.63;11.80;;;7.60;99.90;;;;;;4848924;29;20208;-77
2023/11/07 07:13:59;;;;;;;12.43;11.73;;;7.70;99.90;;;;;;4860433;29;20201;-77
2023/11/07 07:16:30;;;;;;;12.50;11.80;;;7.80;99.90;;;;;;4853387;29;20600;-78
2023/11/07 07:18:57;;;;;;;12.60;11.90;;;7.80;99.90;;;;;;4865062;29;20206;-79
2023/11/07 07:21:25;;;;;;;12.23;11.50;;;7.80;99.90;;;;;;4853008;29;20210;-79
2023/11/07 07:23:51;;;;;;;12.27;11.57;;;7.80;99.90;;;;;;4854662;29;20217;-82
2023/11/07 07:26:22;;;;;;;12.40;11.60;;;7.80;99.90;;;;;;4855010;29;20311;-82
2023/11/07 07:28:52;;;;;;;12.10;11.40;;;7.80;99.90;;;;;;4848574;29;20257;-83
2023/11/07 07:31:27;;;;;;;12.20;11.50;;;8.00;99.90;;;;;;4855612;29;20579;-83
2023/11/07 07:33:56;;;;;;;12.63;11.77;;;8.20;99.90;;;;;;4847295;29;20236;-83
2023/11/07 07:36:23;;;;;;;12.47;11.77;;;8.40;99.90;;;;;;4852178;29;20234;-79
2023/11/07 07:38:52;;;;;;;12.90;12.10;;;8.50;99.90;;;;;;4855451;29;20217;-78
2023/11/07 07:41:20;;;;;;;12.20;11.50;;;8.50;99.90;;;;;;4861451;29;20210;-78
2023/11/07 07:43:47;;;;;;;12.17;11.47;;;8.50;99.90;;;;;;4850638;29;20194;-78
2023/11/07 07:46:14;;;;;;;12.20;11.50;;;8.50;99.90;;;;;;4867537;29;20293;-78
2023/11/07 07:48:42;;;;;;;11.87;11.17;;;8.40;99.90;;;;;;4858624;29;20293;-79
2023/11/07 07:51:13;;;;;;;11.67;10.97;;;8.30;99.90;;;;;;4865982;29;20206;-78
2023/11/07 07:53:41;;;;;;;13.33;12.20;;;8.20;99.90;;;;;;4870471;29;20218;-78
2023/11/07 07:56:13;;;;;;;12.17;11.47;;;8.20;99.90;;;;;;4857284;29;20246;-78
2023/11/07 07:58:42;;;;;;;12.27;11.47;;;8.10;99.90;;;;;;4861710;29;20201;-77
2023/11/07 08:01:10;;;;;;;11.40;10.70;;;8.10;99.90;;;;;;4858063;29;20204;-78
2023/11/07 08:03:37;;;;;;;11.27;10.57;;;8.20;99.90;;;;;;4859465;29;20205;-78
2023/11/07 08:06:05;;;;;;;12.00;11.30;;;8.20;99.90;;;;;;4855661;29;20649;-79
2023/11/07 08:08:33;;;;;;;11.70;11.00;;;8.20;99.90;;;;;;4870668;29;20206;-78
2023/11/07 08:14:23;;;;;;;11.60;10.90;;;8.40;99.90;;;;;;4850753;29;20199;-79
2023/11/07 08:16:51;;;;;;;11.17;10.57;;;8.50;99.90;;;;;;4850144;29;20225;-79
2023/11/07 08:19:20;;;;;;;11.43;10.73;;;8.60;99.90;;;;;;4851479;29;20221;-79
2023/11/07 08:21:48;;;;;;;11.80;11.10;;;8.70;99.90;;;;;;4848872;29;20698;-79
2023/11/07 08:24:16;;;;;;;11.27;10.67;;;8.80;99.90;;;;;;4859142;29;20683;-79
2023/11/07 08:26:43;;;;;;;10.80;10.10;;;8.80;99.90;;;;;;4854340;29;20291;-79
2023/11/07 08:29:12;;;;;;;8.77;7.97;;;8.90;99.90;;;;;;4860208;29;20195;-85
2023/11/07 08:31:40;;;;;;;9.20;8.60;;;9.10;99.90;;;;;;4848131;29;20210;-80
2023/11/07 08:34:09;;;;;;;9.10;8.50;;;9.20;99.90;;;;;;4846003;29;20227;-81
2023/11/07 08:36:37;;;;;;;7.83;7.33;;;9.30;99.90;;;;;;4859573;29;20225;-80
2023/11/07 08:39:05;;;;;;;8.80;8.30;;;9.50;99.90;;;;;;4859892;29;20581;-80
2023/11/07 08:41:33;;;;;;;6.30;5.90;;;9.60;99.90;;;;;;4873985;29;20212;-80
2023/11/07 08:44:00;;;;;;;3.13;2.80;;;9.90;99.90;;;;;;4862427;29;20208;-81
2023/11/07 08:46:27;;;;;;;3.00;2.70;;;10.20;99.90;;;;;;4865235;29;20230;-79
2023/11/07 08:48:54;;;;;;;3.60;2.47;;;10.30;99.90;;;;;;4858019;29;20199;-78
2023/11/07 08:51:21;;;;;;;5.00;4.60;;;10.40;99.90;;;;;;4856752;29;20206;-78
2023/11/07 08:53:48;;;;;;;4.80;4.43;;;10.50;99.90;;;;;;4869819;29;20699;-79
2023/11/07 08:56:15;;;;;;;2.67;2.47;;;10.60;99.90;;;;;;4867570;29;20708;-78
2023/11/07 08:58:43;;;;;;;6.07;5.77;;;11.00;99.90;;;;;;4869023;29;20212;-78
2023/11/07 09:01:11;;;;;;;4.37;4.07;;;11.30;99.90;;;;;;4856561;29;20209;-79
2023/11/07 09:03:38;;;;;;;10.50;9.90;;;11.40;99.90;;;;;;4853025;29;20201;-79
2023/11/07 09:06:06;;;;;;;9.60;9.00;;;11.60;99.90;;;;;;4859601;29;20618;-78
2023/11/07 09:08:33;;;;;;;10.23;9.63;;;11.60;99.90;;;;;;4863090;29;20591;-80
2023/11/07 09:11:01;;;;;;;10.83;10.23;;;11.70;99.90;;;;;;4854583;29;20236;-79
2023/11/07 09:13:28;;;;;;;10.70;10.10;;;11.70;99.90;;;;;;4856567;29;20235;-79
2023/11/07 09:15:59;;;;;;;9.90;9.40;;;11.60;99.90;;;;;;4854958;29;20232;-79
2023/11/07 09:18:27;;;;;;;9.60;9.10;;;11.60;99.90;;;;;;4863760;29;20708;-78
2023/11/07 09:20:54;;;;;;;9.90;9.30;;;11.70;99.90;;;;;;4867021;29;20205;-78
2023/11/07 09:23:21;;;;;;;10.03;9.43;;;12.00;99.90;;;;;;4863822;29;20616;-78
2023/11/07 09:25:47;;;;;;;9.30;8.80;;;12.20;99.90;;;;;;4863889;29;20649;-79
2023/11/07 09:28:14;;;;;;;9.20;8.70;;;12.40;99.90;;;;;;4857743;29;20255;-79
2023/11/07 09:30:41;;;;;;;9.60;9.10;;;12.50;99.90;;;;;;4868232;29;20204;-77
2023/11/07 09:33:09;;;;;;;9.57;8.97;;;12.40;99.90;;;;;;4849629;29;20215;-78
2023/11/07 09:35:37;;;;;;;9.30;8.80;;;12.30;99.90;;;;;;4859720;29;20212;-79
2023/11/07 09:38:04;;;;;;;9.13;8.63;;;12.30;99.90;;;;;;4866927;29;20213;-79
2023/11/07 09:40:31;;;;;;;8.93;8.43;;;12.30;99.90;;;;;;4868809;29;20209;-79
2023/11/07 09:43:01;;;;;;;8.93;8.43;;;12.20;99.90;;;;;;4860468;29;20216;-78
2023/11/07 09:45:35;;;;;;;9.50;9.00;;;12.20;99.90;;;;;;4854881;29;20242;-80
2023/11/07 09:48:02;;;;;;;9.10;8.33;;;12.00;99.90;;;;;;4863750;29;20249;-79
2023/11/07 09:50:33;;;;;;;2.80;2.57;;;11.90;99.90;;;;;;4868160;29;20296;-79
2023/11/07 09:53:02;;;;;;;8.60;8.10;;;11.80;99.90;;;;;;4860740;29;20226;-82
2023/11/07 09:55:30;;;;;;;8.80;8.30;;;11.70;99.90;;;;;;4860412;29;20297;-79
2023/11/07 09:58:03;;;;;;;8.50;8.00;;;11.80;99.90;;;;;;4867735;29;20338;-79
2023/11/07 10:00:33;;;;;;;9.00;8.50;;;11.90;99.90;;;;;;4869180;29;20206;-77
2023/11/07 10:03:01;;;;;;;8.40;7.90;;;11.90;99.90;;;;;;4862216;29;20209;-78
2023/11/07 10:05:30;;;;;;;8.37;7.87;;;12.00;99.90;;;;;;4865423;29;20264;-80
2023/11/07 10:07:59;;;;;;;8.20;7.77;;;12.10;99.90;;;;;;4870675;29;20209;-79
2023/11/07 10:10:26;;;;;;;8.50;8.00;;;12.10;99.90;;;;;;4869855;29;20706;-80
2023/11/07 10:12:53;;;;;;;8.70;8.20;;;12.10;99.90;;;;;;4852340;29;20289;-78
2023/11/07 10:15:21;;;;;;;8.27;7.87;;;12.00;99.90;;;;;;4869228;29;20219;-80
2023/11/07 10:17:58;;;;;;;8.13;7.73;;;12.00;99.90;;;;;;4866310;29;20294;-79
2023/11/07 10:20:25;;;;;;;8.23;7.83;;;12.10;99.90;;;;;;4857165;29;20212;-78
2023/11/07 10:22:53;;;;;;;8.43;7.70;;;12.10;99.90;;;;;;4865470;29;20697;-80
2023/11/07 10:25:30;;;;;;;8.00;7.50;;;12.10;99.90;;;;;;4860129;29;20203;-79
2023/11/07 10:28:01;;;;;;;7.67;7.27;;;12.10;99.90;;;;;;4860697;29;20287;-78
2023/11/07 10:30:35;;;;;;;7.67;7.23;;;12.20;99.90;;;;;;4865609;29;20210;-79
2023/11/07 10:33:03;;;;;;;7.97;7.43;;;12.20;99.90;;;;;;4859290;29;20304;-79
2023/11/07 10:35:30;;;;;;;8.00;7.60;;;12.20;99.90;;;;;;4866993;29;20206;-79
2023/11/07 10:37:57;;;;;;;7.77;7.37;;;12.20;99.90;;;;;;4858489;29;20206;-79
2023/11/07 10:40:24;;;;;;;8.13;7.63;;;12.20;99.90;;;;;;4864109;29;20206;-78
2023/11/07 10:42:52;;;;;;;7.93;7.53;;;12.30;99.90;;;;;;4866573;29;20194;-79
2023/11/07 10:45:21;;;;;;;7.50;7.10;;;12.30;99.90;;;;;;4853751;29;20205;-78
2023/11/07 10:47:49;;;;;;;8.00;7.50;;;12.40;99.90;;;;;;4867636;29;20225;-79
2023/11/07 10:50:17;;;;;;;7.70;7.30;;;12.40;99.90;;;;;;4866774;29;20198;-78
2023/11/07 10:52:48;;;;;;;7.80;7.30;;;12.50;99.90;;;;;;4862953;29;20217;-78
2023/11/07 10:55:16;;;;;;;8.40;7.90;;;12.50;99.90;;;;;;4865991;29;20308;-78
2023/11/07 10:57:52;;;;;;;8.10;7.70;;;12.50;99.90;;;;;;4865623;29;20270;-79
2023/11/07 11:00:21;;;;;;;8.00;7.50;;;12.60;99.90;;;;;;4865721;29;20212;-78
2023/11/07 11:02:53;;;;;;;8.00;7.60;;;12.60;99.90;;;;;;4864806;29;20205;-78
2023/11/07 11:05:23;;;;;;;7.80;7.40;;;12.70;99.90;;;;;;4866159;29;20206;-78
2023/11/07 11:07:52;;;;;;;8.20;7.80;;;12.80;99.90;;;;;;4866421;29;20249;-78
2023/11/07 11:10:27;;;;;;;7.90;7.40;;;12.80;99.90;;;;;;4865804;29;20202;-78
2023/11/07 11:12:56;;;;;;;7.80;7.40;;;12.80;99.90;;;;;;4865310;29;20281;-78
2023/11/07 11:15:25;;;;;;;7.93;7.53;;;12.80;99.90;;;;;;4866115;29;20277;-78
2023/11/07 11:17:57;;;;;;;8.60;8.10;;;12.90;99.90;;;;;;4858072;29;20214;-78
2023/11/07 11:20:32;;;;;;;7.90;7.50;;;13.00;99.90;;;;;;4856682;29;20210;-78
2023/11/07 11:23:08;;;;;;;7.80;7.40;;;13.10;99.90;;;;;;4863528;29;20274;-78
2023/11/07 11:25:52;;;;;;;8.00;7.60;;;13.20;99.90;;;;;;4859447;29;20623;-78
2023/11/07 11:28:36;;;;;;;8.23;7.73;;;13.40;99.90;;;;;;4864782;29;20581;-78
2023/11/07 11:31:05;;;;;;;3.23;2.93;;;13.50;99.90;;;;;;4863014;29;20267;-78
2023/11/07 11:33:33;;;;;;;2.50;2.10;;;13.40;99.90;;;;;;4853785;29;20654;-78
2023/11/07 11:36:00;;;;;;;3.43;3.27;;;13.40;99.90;;;;;;4859343;29;20243;-78
2023/11/07 11:38:39;;;;;;;5.23;4.87;;;13.50;99.90;;;;;;4860440;29;20233;-79
2023/11/07 11:41:07;;;;;;;4.50;2.57;;;13.70;99.90;;;;;;4860311;29;20654;-78
2023/11/07 11:43:38;;;;;;;3.80;3.60;;;13.90;99.90;;;;;;4847171;29;20206;-78
2023/11/07 11:46:39;;;;;;;2.50;2.30;;;13.90;99.90;;;;;;4851054;29;20227;-78
2023/11/07 11:49:08;;;;;;;3.70;3.50;;;13.90;99.90;;;;;;4859743;29;20646;-78
2023/11/07 11:51:36;;;;;;;3.43;3.23;;;13.90;99.90;;;;;;4854732;29;20592;-79
2023/11/07 11:54:04;;;;;;;3.63;3.43;;;14.00;99.90;;;;;;4855466;29;20216;-79
2023/11/07 11:56:33;;;;;;;2.63;2.53;;;13.90;99.90;;;;;;4863468;29;20290;-79
2023/11/07 11:59:04;;;;;;;2.10;2.00;;;13.70;99.90;;;;;;4861235;29;20262;-78
2023/11/07 12:01:48;;;;;;;3.40;3.20;;;13.70;99.90;;;;;;4855267;29;20695;-78
2023/11/07 12:04:33;;;;;;;3.70;3.50;;;13.60;99.90;;;;;;4863354;29;20250;-78
2023/11/07 12:07:20;;;;;;;8.87;8.37;;;13.60;99.90;;;;;;4863796;29;20246;-78
2023/11/07 12:09:50;;;;;;;8.93;8.43;;;13.40;99.90;;;;;;4854613;29;20211;-78
2023/11/07 12:12:18;;;;;;;9.00;8.50;;;13.40;99.90;;;;;;4860928;29;20485;-78
2023/11/07 12:14:52;;;;;;;5.57;5.23;;;13.50;99.90;;;;;;4864429;29;20301;-77
2023/11/07 12:17:51;;;;;;;9.43;8.93;;;13.50;99.90;;;;;;4860691;29;20226;-82
2023/11/07 12:20:27;;;;;;;8.73;8.23;;;13.50;99.90;;;;;;4861849;29;20203;-82
2023/11/07 12:23:12;;;;;;;9.47;8.97;;;13.50;99.90;;;;;;4852543;29;20209;-82
2023/11/07 12:25:51;;;;;;;9.03;8.53;;;13.30;99.90;;;;;;4860996;29;20214;-84
2023/11/07 12:28:20;;;;;;;9.10;8.47;;;13.20;99.90;;;;;;4846385;29;20278;-81
2023/11/07 12:31:18;;;;;;;8.93;8.43;;;13.10;99.90;;;;;;4859151;29;20206;-82
2023/11/07 12:40:50;;;;;;;9.47;8.77;;;12.80;99.90;;;;;;4850152;29;20748;-78
2023/11/07 12:43:17;;;;;;;9.03;8.53;;;12.90;99.90;;;;;;4864900;29;20641;-76
2023/11/07 12:45:46;;;;;;;9.20;8.70;;;12.80;99.90;;;;;;4867708;29;20206;-77
2023/11/07 12:48:14;;;;;;;8.80;8.30;;;12.70;99.90;;;;;;4852214;29;20215;-78
2023/11/07 12:50:43;;;;;;;8.90;8.40;;;12.70;99.90;;;;;;4859841;29;20216;-77
2023/11/07 12:53:12;;;;;;;9.10;8.60;;;12.70;99.90;;;;;;4862935;29;20682;-78
2023/11/07 12:55:39;;;;;;;9.13;8.53;;;12.70;99.90;;;;;;4881275;29;20222;-78
2023/11/07 12:58:08;;;;;;;9.50;9.00;;;12.70;99.90;;;;;;4857704;29;20231;-78